Time;durP1;ratioP1;P1;durP2;ratioP2;P2;SDS_P1;SDS_P2;PMS_P1;PMS_P2;Temp;Humidity;BMP_temperature;BMP_pressure;BME280_temperature;BME280_humidity;BME280_pressure;Samples;Min_cycle;Max_cycle;Signal;HPM_P1;HPM_P2
2023/04/06 00:01:06;;;;;;;7.55;6.85;;;;;;;;;;5079580;28;20374;-78
2023/04/06 00:03:32;;;;;;;7.25;6.60;;;;;;;;;;5075727;28;20558;-78
2023/04/06 00:05:59;;;;;;;7.30;6.70;;;;;;;;;;5083153;28;20759;-78
2023/04/06 00:08:26;;;;;;;7.20;6.60;;;;;;;;;;5083577;28;20447;-77
2023/04/06 00:10:52;;;;;;;7.43;6.82;;;;;;;;;;5065641;28;20477;-78
2023/04/06 00:13:18;;;;;;;7.57;6.88;;;;;;;;;;5079053;28;20388;-78
2023/04/06 00:15:44;;;;;;;7.43;6.82;;;;;;;;;;5066987;28;20384;-78
2023/04/06 00:18:10;;;;;;;7.38;6.80;;;;;;;;;;5074258;28;20370;-78
2023/04/06 00:20:36;;;;;;;7.65;7.05;;;;;;;;;;5068932;28;20389;-78
2023/04/06 00:23:02;;;;;;;7.53;6.93;;;;;;;;;;5062849;28;20388;-76
2023/04/06 00:25:28;;;;;;;7.43;6.82;;;;;;;;;;5063148;28;20397;-77
2023/04/06 00:27:54;;;;;;;7.95;7.28;;;;;;;;;;5055673;28;20412;-76
2023/04/06 00:30:21;;;;;;;8.15;7.55;;;;;;;;;;5060061;28;20761;-77
2023/04/06 00:32:47;;;;;;;8.05;7.35;;;;;;;;;;5059797;28;20413;-77
2023/04/06 00:35:13;;;;;;;7.38;6.78;;;;;;;;;;5058546;28;21030;-77
2023/04/06 00:37:39;;;;;;;7.90;7.20;;;;;;;;;;5069449;28;20379;-78
2023/04/06 00:40:05;;;;;;;7.60;6.95;;;;;;;;;;5059617;28;20460;-78
2023/04/06 00:42:31;;;;;;;8.05;7.35;;;;;;;;;;5050303;28;20504;-77
2023/04/06 00:44:59;;;;;;;7.97;7.28;;;;;;;;;;5074920;28;20891;-77
2023/04/06 00:47:25;;;;;;;7.50;6.85;;;;;;;;;;5085604;28;20712;-77
2023/04/06 00:49:52;;;;;;;7.57;6.90;;;;;;;;;;5073666;28;20385;-77
2023/04/06 00:52:18;;;;;;;7.70;7.10;;;;;;;;;;5063846;28;20739;-77
2023/04/06 00:54:44;;;;;;;7.63;6.93;;;;;;;;;;5071273;28;20416;-77
2023/04/06 00:57:11;;;;;;;8.30;7.60;;;;;;;;;;5082591;28;20374;-76
2023/04/06 00:59:37;;;;;;;7.70;7.00;;;;;;;;;;5077907;28;20443;-77
2023/04/06 01:02:03;;;;;;;8.07;7.38;;;;;;;;;;5077841;28;20386;-78
2023/04/06 01:04:30;;;;;;;7.73;7.13;;;;;;;;;;5080097;28;20389;-77
2023/04/06 01:06:56;;;;;;;7.47;6.88;;;;;;;;;;5067708;28;20382;-78
2023/04/06 01:09:22;;;;;;;7.97;7.27;;;;;;;;;;5085521;28;20408;-77
2023/04/06 01:11:48;;;;;;;7.55;6.88;;;;;;;;;;5088374;28;20419;-77
2023/04/06 01:14:14;;;;;;;7.63;7.00;;;;;;;;;;5081920;28;20397;-78
2023/04/06 01:16:41;;;;;;;7.72;7.13;;;;;;;;;;5078113;28;20376;-77
2023/04/06 01:19:08;;;;;;;7.57;6.97;;;;;;;;;;5052040;28;20806;-78
2023/04/06 01:21:34;;;;;;;7.53;6.93;;;;;;;;;;5080260;28;20450;-78
2023/04/06 01:24:00;;;;;;;7.68;7.07;;;;;;;;;;5058142;28;20464;-78
2023/04/06 01:26:27;;;;;;;7.70;7.10;;;;;;;;;;5058864;28;20447;-77
2023/04/06 01:28:53;;;;;;;7.90;7.18;;;;;;;;;;5054624;28;20453;-77
2023/04/06 01:31:19;;;;;;;7.68;6.70;;;;;;;;;;5062117;28;20925;-77
2023/04/06 01:33:45;;;;;;;7.93;7.13;;;;;;;;;;5071181;28;20424;-77
2023/04/06 01:36:11;;;;;;;7.88;7.05;;;;;;;;;;5071119;28;20421;-77
2023/04/06 01:38:37;;;;;;;6.95;6.38;;;;;;;;;;5071331;28;20372;-77
2023/04/06 01:41:03;;;;;;;7.90;7.30;;;;;;;;;;5070999;28;20371;-77
2023/04/06 01:43:29;;;;;;;7.50;6.90;;;;;;;;;;5070874;28;20906;-77
2023/04/06 01:45:55;;;;;;;7.82;7.22;;;;;;;;;;5070502;28;20513;-76
2023/04/06 01:48:21;;;;;;;8.30;7.50;;;;;;;;;;5071174;28;20390;-76
2023/04/06 01:50:47;;;;;;;8.03;7.33;;;;;;;;;;5071709;28;20379;-77
2023/04/06 01:53:14;;;;;;;7.80;7.20;;;;;;;;;;5077597;28;20860;-76
2023/04/06 01:55:40;;;;;;;8.00;7.32;;;;;;;;;;5080282;28;20421;-77
2023/04/06 01:58:06;;;;;;;7.80;7.07;;;;;;;;;;5074397;28;20372;-77
2023/04/06 02:00:32;;;;;;;7.97;7.27;;;;;;;;;;5075570;28;20384;-77
2023/04/06 02:02:58;;;;;;;8.55;7.75;;;;;;;;;;5074914;28;20394;-77
2023/04/06 02:05:24;;;;;;;8.20;7.50;;;;;;;;;;5069854;28;20930;-77
2023/04/06 02:07:51;;;;;;;8.35;7.55;;;;;;;;;;5065476;28;20421;-77
2023/04/06 02:10:17;;;;;;;7.95;7.35;;;;;;;;;;5085894;28;20382;-77
2023/04/06 02:12:43;;;;;;;8.18;7.50;;;;;;;;;;5082435;28;20384;-77
2023/04/06 02:15:09;;;;;;;8.20;7.50;;;;;;;;;;5088829;28;20409;-77
2023/04/06 02:17:36;;;;;;;7.57;6.95;;;;;;;;;;5084646;28;20407;-77
2023/04/06 02:20:02;;;;;;;8.23;7.47;;;;;;;;;;5079502;28;20857;-76
2023/04/06 02:22:28;;;;;;;8.02;7.32;;;;;;;;;;5082290;28;20465;-77
2023/04/06 02:24:54;;;;;;;8.52;7.75;;;;;;;;;;5085010;28;20423;-77
2023/04/06 02:27:20;;;;;;;8.05;7.35;;;;;;;;;;5088643;28;20389;-77
2023/04/06 02:29:46;;;;;;;8.30;7.53;;;;;;;;;;5083372;28;20371;-77
2023/04/06 02:32:12;;;;;;;7.95;7.35;;;;;;;;;;5088347;28;20851;-77
2023/04/06 02:34:38;;;;;;;8.03;7.33;;;;;;;;;;5084896;28;20527;-77
2023/04/06 02:37:04;;;;;;;8.38;7.68;;;;;;;;;;5087038;28;20431;-77
2023/04/06 02:39:30;;;;;;;8.30;7.70;;;;;;;;;;5086716;28;20869;-77
2023/04/06 02:41:56;;;;;;;7.65;6.95;;;;;;;;;;5083674;28;20384;-76
2023/04/06 02:44:23;;;;;;;8.27;7.57;;;;;;;;;;5088335;28;20392;-77
2023/04/06 02:46:49;;;;;;;8.43;7.63;;;;;;;;;;5083133;28;20762;-77
2023/04/06 02:49:15;;;;;;;7.95;7.25;;;;;;;;;;5088202;28;20378;-77
2023/04/06 02:51:41;;;;;;;7.72;7.13;;;;;;;;;;5081552;28;20464;-77
2023/04/06 02:54:07;;;;;;;7.90;7.30;;;;;;;;;;5086777;28;20402;-77
2023/04/06 02:56:33;;;;;;;8.45;7.70;;;;;;;;;;5082284;28;20374;-77
2023/04/06 02:58:59;;;;;;;7.70;7.07;;;;;;;;;;5085127;28;20374;-77
2023/04/06 03:01:25;;;;;;;8.15;7.45;;;;;;;;;;5087752;28;20370;-77
2023/04/06 03:03:51;;;;;;;7.80;7.10;;;;;;;;;;5083040;28;20880;-77
2023/04/06 03:06:17;;;;;;;8.05;7.45;;;;;;;;;;5087887;28;20418;-77
2023/04/06 03:08:43;;;;;;;8.00;7.40;;;;;;;;;;5087629;28;20485;-77
2023/04/06 03:11:09;;;;;;;7.32;6.72;;;;;;;;;;5077248;28;20459;-76
2023/04/06 03:13:35;;;;;;;7.65;7.00;;;;;;;;;;5072519;28;20399;-77
2023/04/06 03:16:01;;;;;;;8.52;7.82;;;;;;;;;;5072538;28;20455;-77
2023/04/06 03:18:27;;;;;;;8.27;7.60;;;;;;;;;;5071377;28;20522;-77
2023/04/06 03:20:56;;;;;;;8.35;7.63;;;;;;;;;;5072486;28;20869;-77
2023/04/06 03:23:22;;;;;;;7.78;7.18;;;;;;;;;;5072381;28;20433;-77
2023/04/06 03:25:48;;;;;;;7.80;7.15;;;;;;;;;;5072425;28;20772;-77
2023/04/06 03:28:15;;;;;;;8.10;7.30;;;;;;;;;;5072223;28;20378;-77
2023/04/06 03:30:41;;;;;;;7.88;7.20;;;;;;;;;;5072400;28;20386;-77
2023/04/06 03:33:07;;;;;;;8.52;7.82;;;;;;;;;;5071697;28;20434;-77
2023/04/06 03:35:34;;;;;;;8.18;7.38;;;;;;;;;;5071984;28;20477;-77
2023/04/06 03:38:00;;;;;;;8.20;7.40;;;;;;;;;;5072105;28;20379;-77
2023/04/06 03:40:26;;;;;;;8.18;7.47;;;;;;;;;;5075831;28;20381;-77
2023/04/06 03:42:52;;;;;;;8.65;7.90;;;;;;;;;;5081682;28;20462;-77
2023/04/06 03:45:18;;;;;;;8.27;7.57;;;;;;;;;;5071829;28;20380;-77
2023/04/06 03:47:44;;;;;;;8.77;8.00;;;;;;;;;;5071924;28;20383;-77
2023/04/06 03:50:10;;;;;;;8.45;7.80;;;;;;;;;;5071495;28;20395;-77
2023/04/06 03:52:36;;;;;;;9.15;8.35;;;;;;;;;;5071389;28;20379;-77
2023/04/06 03:55:03;;;;;;;9.20;8.43;;;;;;;;;;5071655;28;20449;-77
2023/04/06 03:57:29;;;;;;;9.20;8.30;;;;;;;;;;5071632;28;20411;-77
2023/04/06 03:59:55;;;;;;;9.25;8.50;;;;;;;;;;5071687;28;20379;-77
2023/04/06 04:02:21;;;;;;;9.25;8.35;;;;;;;;;;5071422;28;20390;-77
2023/04/06 04:04:47;;;;;;;9.25;8.45;;;;;;;;;;5071706;28;20745;-76
2023/04/06 04:07:13;;;;;;;8.45;7.68;;;;;;;;;;5071394;28;20379;-76
2023/04/06 04:09:39;;;;;;;8.30;7.60;;;;;;;;;;5085614;28;20436;-76
2023/04/06 04:12:05;;;;;;;8.60;7.82;;;;;;;;;;5062565;28;20387;-77
2023/04/06 04:14:31;;;;;;;8.52;7.82;;;;;;;;;;5077808;28;20399;-77
2023/04/06 04:16:57;;;;;;;8.70;7.97;;;;;;;;;;5070699;28;20512;-77
2023/04/06 04:19:23;;;;;;;8.75;8.05;;;;;;;;;;5071074;28;20412;-77
2023/04/06 04:21:49;;;;;;;8.60;7.90;;;;;;;;;;5081126;28;20406;-77
2023/04/06 04:24:15;;;;;;;8.23;7.57;;;;;;;;;;5067669;28;20418;-77
2023/04/06 04:26:41;;;;;;;8.70;7.97;;;;;;;;;;5079846;28;20825;-77
2023/04/06 04:29:07;;;;;;;8.90;8.10;;;;;;;;;;5073032;28;20375;-77
2023/04/06 04:31:33;;;;;;;8.75;8.05;;;;;;;;;;5077650;28;20380;-76
2023/04/06 04:34:00;;;;;;;8.88;8.13;;;;;;;;;;5079810;28;20770;-77
2023/04/06 04:36:26;;;;;;;9.20;8.32;;;;;;;;;;5076484;28;20383;-77
2023/04/06 04:38:52;;;;;;;9.13;8.40;;;;;;;;;;5081417;28;20735;-77
2023/04/06 04:41:19;;;;;;;8.85;8.15;;;;;;;;;;5076214;28;20466;-77
2023/04/06 04:43:45;;;;;;;9.43;8.52;;;;;;;;;;5079939;28;20378;-77
2023/04/06 04:46:11;;;;;;;9.17;8.37;;;;;;;;;;5077625;28;20423;-77
2023/04/06 04:48:37;;;;;;;9.38;8.48;;;;;;;;;;5077996;28;20390;-77
2023/04/06 04:51:04;;;;;;;9.00;8.30;;;;;;;;;;5078731;28;20409;-76
2023/04/06 04:53:31;;;;;;;8.98;8.18;;;;;;;;;;5070489;28;20383;-77
2023/04/06 04:55:57;;;;;;;9.52;8.63;;;;;;;;;;5076646;28;20381;-77
2023/04/06 04:58:23;;;;;;;8.93;8.20;;;;;;;;;;5089692;28;20435;-76
2023/04/06 05:00:49;;;;;;;8.88;8.18;;;;;;;;;;5087909;28;20374;-77
2023/04/06 05:03:25;;;;;;;8.60;7.90;;;;;;;;;;5089548;28;20802;-77
2023/04/06 05:05:51;;;;;;;8.70;7.90;;;;;;;;;;5087832;28;20374;-77
2023/04/06 05:08:17;;;;;;;9.50;8.70;;;;;;;;;;5091268;28;20743;-76
2023/04/06 05:10:44;;;;;;;11.35;10.35;;;;;;;;;;5079338;28;20383;-76
2023/04/06 05:13:10;;;;;;;9.18;8.48;;;;;;;;;;5072006;28;20425;-76
2023/04/06 05:15:40;;;;;;;8.98;8.23;;;;;;;;;;5075633;28;20899;-76
2023/04/06 05:18:06;;;;;;;8.82;8.13;;;;;;;;;;5083115;28;20389;-76
2023/04/06 05:20:32;;;;;;;9.27;8.48;;;;;;;;;;5070286;28;20480;-76
2023/04/06 05:22:58;;;;;;;8.75;8.05;;;;;;;;;;5068795;28;20388;-76
2023/04/06 05:25:25;;;;;;;9.75;8.85;;;;;;;;;;5077717;28;20370;-76
2023/04/06 05:27:51;;;;;;;9.73;8.93;;;;;;;;;;5067418;28;20383;-76
2023/04/06 05:30:17;;;;;;;9.52;8.63;;;;;;;;;;5072352;28;20423;-77
2023/04/06 05:32:44;;;;;;;9.45;8.65;;;;;;;;;;5073287;28;20403;-76
2023/04/06 05:35:10;;;;;;;9.60;8.80;;;;;;;;;;5075854;28;20421;-77
2023/04/06 05:37:36;;;;;;;9.82;9.02;;;;;;;;;;5074901;28;20376;-77
2023/04/06 05:40:02;;;;;;;9.52;8.82;;;;;;;;;;5068465;28;20409;-77
2023/04/06 05:42:28;;;;;;;9.73;8.60;;;;;;;;;;5073713;28;20375;-78
2023/04/06 05:44:56;;;;;;;9.95;9.15;;;;;;;;;;5076433;28;20518;-78
2023/04/06 05:47:22;;;;;;;9.75;8.85;;;;;;;;;;5081889;28;20952;-78
2023/04/06 05:49:48;;;;;;;10.03;9.13;;;;;;;;;;5072329;28;20414;-78
2023/04/06 05:52:14;;;;;;;10.07;9.18;;;;;;;;;;5078767;28;20481;-78
2023/04/06 05:54:40;;;;;;;10.15;9.35;;;;;;;;;;5067212;28;20896;-78
2023/04/06 05:57:06;;;;;;;10.00;9.18;;;;;;;;;;5079276;28;20390;-78
2023/04/06 05:59:32;;;;;;;11.05;10.07;;;;;;;;;;5078355;28;20380;-78
2023/04/06 06:01:58;;;;;;;10.02;9.23;;;;;;;;;;5077366;28;20408;-78
2023/04/06 06:04:24;;;;;;;10.60;9.60;;;;;;;;;;5080778;28;20378;-79
2023/04/06 06:06:50;;;;;;;10.70;9.85;;;;;;;;;;5076898;28;20387;-78
2023/04/06 06:09:16;;;;;;;10.63;9.63;;;;;;;;;;5075051;28;20422;-79
2023/04/06 06:11:42;;;;;;;10.80;9.90;;;;;;;;;;5084948;28;20739;-77
2023/04/06 06:14:08;;;;;;;10.40;9.50;;;;;;;;;;5081505;28;20832;-77
2023/04/06 06:16:35;;;;;;;9.93;9.13;;;;;;;;;;5079296;28;20405;-77
2023/04/06 06:19:01;;;;;;;10.20;9.35;;;;;;;;;;5083726;28;20413;-77
2023/04/06 06:21:27;;;;;;;10.23;9.33;;;;;;;;;;5089960;28;20408;-77
2023/04/06 06:23:54;;;;;;;10.75;9.82;;;;;;;;;;5092023;28;20919;-77
2023/04/06 06:26:20;;;;;;;10.90;9.90;;;;;;;;;;5068969;28;20392;-77
2023/04/06 06:28:46;;;;;;;11.32;10.30;;;;;;;;;;5076603;28;20410;-77
2023/04/06 06:31:12;;;;;;;11.73;10.73;;;;;;;;;;5078594;28;20441;-77
2023/04/06 06:33:38;;;;;;;11.73;10.52;;;;;;;;;;5070748;28;20764;-77
2023/04/06 06:36:04;;;;;;;11.85;10.75;;;;;;;;;;5092343;28;20912;-77
2023/04/06 06:38:30;;;;;;;12.13;10.98;;;;;;;;;;5075985;28;20422;-77
2023/04/06 06:40:56;;;;;;;14.13;12.73;;;;;;;;;;5085440;28;21007;-77
2023/04/06 06:43:22;;;;;;;13.85;11.75;;;;;;;;;;5079603;28;20471;-77
2023/04/06 06:45:48;;;;;;;16.00;12.57;;;;;;;;;;5085257;28;20414;-77
2023/04/06 06:48:14;;;;;;;15.10;12.48;;;;;;;;;;5074568;28;20427;-77
2023/04/06 06:50:41;;;;;;;16.35;13.18;;;;;;;;;;5084980;28;20376;-77
2023/04/06 06:53:07;;;;;;;18.38;13.85;;;;;;;;;;5076751;28;20426;-77
2023/04/06 06:55:33;;;;;;;18.17;14.17;;;;;;;;;;5081185;28;20454;-77
2023/04/06 06:57:59;;;;;;;64.10;32.92;;;;;;;;;;5089885;28;20383;-77
2023/04/06 07:00:25;;;;;;;21.65;14.88;;;;;;;;;;5081710;28;20866;-77
2023/04/06 07:02:51;;;;;;;28.50;17.08;;;;;;;;;;5086533;28;20378;-77
2023/04/06 07:05:17;;;;;;;110.07;45.43;;;;;;;;;;5083417;28;20476;-77
2023/04/06 07:07:43;;;;;;;101.97;43.53;;;;;;;;;;5074928;28;20374;-77
2023/04/06 07:10:10;;;;;;;146.95;55.55;;;;;;;;;;5077802;28;20390;-78
2023/04/06 07:12:36;;;;;;;54.85;25.77;;;;;;;;;;5064017;28;20464;-78
2023/04/06 07:15:02;;;;;;;25.27;16.77;;;;;;;;;;5084731;28;20536;-77
2023/04/06 07:17:28;;;;;;;71.55;31.10;;;;;;;;;;5082816;28;20384;-77
2023/04/06 07:19:54;;;;;;;122.13;45.10;;;;;;;;;;5083431;28;20458;-78
2023/04/06 07:22:20;;;;;;;29.92;17.40;;;;;;;;;;5084253;28;20362;-77
2023/04/06 07:24:46;;;;;;;31.08;17.83;;;;;;;;;;5081567;28;20387;-77
2023/04/06 07:27:12;;;;;;;24.20;16.10;;;;;;;;;;5069260;28;20866;-77
2023/04/06 07:29:38;;;;;;;158.80;57.50;;;;;;;;;;5091336;28;20806;-77
2023/04/06 07:32:04;;;;;;;45.17;23.50;;;;;;;;;;5084132;28;20559;-77
2023/04/06 07:34:30;;;;;;;64.95;30.67;;;;;;;;;;5077977;28;20418;-77
2023/04/06 07:36:57;;;;;;;31.95;20.55;;;;;;;;;;5080876;28;20384;-77
2023/04/06 07:39:23;;;;;;;26.60;18.77;;;;;;;;;;5080118;28;20425;-77
2023/04/06 07:41:49;;;;;;;24.40;17.13;;;;;;;;;;5078993;28;20403;-78
2023/04/06 07:44:15;;;;;;;27.53;17.57;;;;;;;;;;5074262;28;20575;-77
2023/04/06 07:46:41;;;;;;;26.63;17.45;;;;;;;;;;5065171;28;20826;-77
2023/04/06 07:49:07;;;;;;;19.42;15.73;;;;;;;;;;5085384;28;20470;-77
2023/04/06 07:51:36;;;;;;;18.90;15.45;;;;;;;;;;5073618;28;20744;-77
2023/04/06 07:54:02;;;;;;;21.73;16.27;;;;;;;;;;5083900;28;20402;-78
2023/04/06 07:56:28;;;;;;;19.80;15.40;;;;;;;;;;5080037;28;20851;-77
2023/04/06 07:58:56;;;;;;;20.65;14.88;;;;;;;;;;5082346;28;20844;-77
2023/04/06 08:01:22;;;;;;;14.55;12.35;;;;;;;;;;5084247;28;20385;-77
2023/04/06 08:03:50;;;;;;;13.70;11.30;;;;;;;;;;5080448;28;20783;-77
2023/04/06 08:06:16;;;;;;;13.10;11.30;;;;;;;;;;5085836;28;20382;-77
2023/04/06 08:08:42;;;;;;;13.30;10.70;;;;;;;;;;5071014;28;20475;-77
2023/04/06 08:11:11;;;;;;;13.77;11.35;;;;;;;;;;5085708;28;20781;-77
2023/04/06 08:13:37;;;;;;;11.05;9.98;;;;;;;;;;5071610;28;20395;-78
2023/04/06 08:16:03;;;;;;;9.63;8.80;;;;;;;;;;5071777;28;20702;-77
2023/04/06 08:18:29;;;;;;;9.40;8.60;;;;;;;;;;5071370;28;20395;-77
2023/04/06 08:20:56;;;;;;;11.65;10.50;;;;;;;;;;5070472;28;20380;-77
2023/04/06 08:23:22;;;;;;;10.70;9.80;;;;;;;;;;5070427;28;20507;-78
2023/04/06 08:25:48;;;;;;;9.82;9.00;;;;;;;;;;5071333;28;20384;-77
2023/04/06 08:28:14;;;;;;;9.85;8.95;;;;;;;;;;5070920;28;20380;-77
2023/04/06 08:30:41;;;;;;;10.05;9.07;;;;;;;;;;5071446;28;20466;-77
2023/04/06 08:33:07;;;;;;;10.60;9.60;;;;;;;;;;5071017;28;20408;-77
2023/04/06 08:35:33;;;;;;;9.98;9.07;;;;;;;;;;5072279;28;20407;-77
2023/04/06 08:37:59;;;;;;;11.00;9.85;;;;;;;;;;5071465;28;20368;-77
2023/04/06 08:40:25;;;;;;;10.10;9.18;;;;;;;;;;5073389;28;20376;-77
2023/04/06 08:42:55;;;;;;;11.15;10.00;;;;;;;;;;5075421;28;20941;-76
2023/04/06 08:45:21;;;;;;;12.67;9.87;;;;;;;;;;5073209;28;20462;-77
2023/04/06 08:47:58;;;;;;;9.32;8.55;;;;;;;;;;5071937;28;20387;-78
2023/04/06 08:50:25;;;;;;;8.70;8.00;;;;;;;;;;5073698;28;20375;-77
2023/04/06 08:52:51;;;;;;;9.63;8.73;;;;;;;;;;5091111;28;20403;-77
2023/04/06 08:55:17;;;;;;;9.07;8.32;;;;;;;;;;5081653;28;20421;-77
2023/04/06 08:57:43;;;;;;;10.27;9.17;;;;;;;;;;5090754;28;20377;-78
2023/04/06 09:00:10;;;;;;;9.65;8.68;;;;;;;;;;5090874;28;20867;-78
2023/04/06 09:02:40;;;;;;;9.10;8.20;;;;;;;;;;5090215;28;20443;-78
2023/04/06 09:05:08;;;;;;;8.93;8.07;;;;;;;;;;5090901;28;21065;-78
2023/04/06 09:07:34;;;;;;;9.05;8.15;;;;;;;;;;5093077;28;20378;-77
2023/04/06 09:10:00;;;;;;;8.70;8.00;;;;;;;;;;5089697;28;20385;-78
2023/04/06 09:12:30;;;;;;;8.82;8.00;;;;;;;;;;5075223;28;20395;-78
2023/04/06 09:14:56;;;;;;;10.25;8.73;;;;;;;;;;5074973;28;20406;-79
2023/04/06 09:17:27;;;;;;;8.93;8.15;;;;;;;;;;5075088;28;20380;-78
2023/04/06 09:19:53;;;;;;;9.25;8.52;;;;;;;;;;5074956;28;20372;-77
2023/04/06 09:22:19;;;;;;;9.73;8.60;;;;;;;;;;5074026;28;20852;-78
2023/04/06 09:24:46;;;;;;;9.48;8.68;;;;;;;;;;5089676;28;20457;-77
2023/04/06 09:27:13;;;;;;;9.97;8.97;;;;;;;;;;5094952;28;20471;-77
2023/04/06 09:29:39;;;;;;;9.15;8.20;;;;;;;;;;5095039;28;20430;-77
2023/04/06 09:32:06;;;;;;;9.07;8.38;;;;;;;;;;5094507;28;20409;-77
2023/04/06 09:34:32;;;;;;;8.57;7.88;;;;;;;;;;5098330;22;20395;-80
2023/04/06 09:36:58;;;;;;;8.48;7.70;;;;;;;;;;5089816;28;20907;-81
2023/04/06 09:39:25;;;;;;;7.70;6.93;;;;;;;;;;5094742;28;20453;-80
2023/04/06 09:41:52;;;;;;;7.50;6.70;;;;;;;;;;5082033;28;20779;-80
2023/04/06 09:44:19;;;;;;;7.40;6.70;;;;;;;;;;5087516;28;20712;-79
2023/04/06 09:46:46;;;;;;;9.00;8.10;;;;;;;;;;5089140;28;20372;-79
2023/04/06 09:49:13;;;;;;;9.55;7.57;;;;;;;;;;5074366;28;20384;-79
2023/04/06 09:51:39;;;;;;;8.27;7.57;;;;;;;;;;5083906;28;20746;-80
2023/04/06 09:54:06;;;;;;;8.27;7.57;;;;;;;;;;5079943;28;20403;-78
2023/04/06 09:56:38;;;;;;;8.75;7.95;;;;;;;;;;5077600;28;20436;-78
2023/04/06 09:59:08;;;;;;;8.95;8.15;;;;;;;;;;5071282;28;20375;-80
2023/04/06 10:01:35;;;;;;;8.60;7.70;;;;;;;;;;5077662;28;20382;-79
2023/04/06 10:04:04;;;;;;;8.35;7.57;;;;;;;;;;5079374;28;20368;-77
2023/04/06 10:06:33;;;;;;;8.50;7.70;;;;;;;;;;5088505;28;20423;-79
2023/04/06 10:08:59;;;;;;;8.60;7.30;;;;;;;;;;5087640;28;20424;-78
2023/04/06 10:11:26;;;;;;;6.47;5.97;;;;;;;;;;5086016;28;20859;-79
2023/04/06 10:13:52;;;;;;;8.60;7.70;;;;;;;;;;5087333;28;20901;-78
2023/04/06 10:16:18;;;;;;;5.67;5.17;;;;;;;;;;5074538;28;20418;-79
2023/04/06 10:18:47;;;;;;;5.43;4.93;;;;;;;;;;5073140;28;20865;-79
2023/04/06 10:21:14;;;;;;;5.15;4.55;;;;;;;;;;5074491;28;20392;-79
2023/04/06 10:23:44;;;;;;;5.07;4.60;;;;;;;;;;5075268;28;20426;-79
2023/04/06 10:26:14;;;;;;;5.63;5.13;;;;;;;;;;5074333;28;20384;-79
2023/04/06 10:28:41;;;;;;;6.18;5.68;;;;;;;;;;5074794;28;20375;-78
2023/04/06 10:31:08;;;;;;;6.25;5.65;;;;;;;;;;5082143;28;20399;-80
2023/04/06 10:33:34;;;;;;;6.28;5.78;;;;;;;;;;5081564;28;20380;-80
2023/04/06 10:36:12;;;;;;;6.17;5.67;;;;;;;;;;5073076;28;20403;-79
2023/04/06 10:38:39;;;;;;;6.13;5.63;;;;;;;;;;5079616;28;20470;-78
2023/04/06 10:41:05;;;;;;;7.05;5.70;;;;;;;;;;5072161;28;20521;-78
2023/04/06 10:43:35;;;;;;;6.40;5.90;;;;;;;;;;5081288;28;20388;-79
2023/04/06 10:46:01;;;;;;;7.33;6.27;;;;;;;;;;5091740;28;20397;-80
2023/04/06 10:48:40;;;;;;;6.50;5.95;;;;;;;;;;5073271;28;20379;-80
2023/04/06 10:51:13;;;;;;;9.55;7.55;;;;;;;;;;5087201;28;20374;-80
2023/04/06 10:53:40;;;;;;;6.03;5.53;;;;;;;;;;5073004;28;20847;-79
2023/04/06 10:56:13;;;;;;;6.05;5.45;;;;;;;;;;5072297;28;20376;-79
2023/04/06 10:58:45;;;;;;;5.97;5.47;;;;;;;;;;5080006;28;20378;-80
2023/04/06 11:01:11;;;;;;;5.75;5.35;;;;;;;;;;5078699;28;20459;-79
2023/04/06 11:03:44;;;;;;;5.68;5.07;;;;;;;;;;5072959;28;20872;-79
2023/04/06 11:06:11;;;;;;;5.50;5.00;;;;;;;;;;5080379;28;20401;-80
2023/04/06 11:08:37;;;;;;;6.28;5.63;;;;;;;;;;5079920;28;20380;-79
2023/04/06 11:11:10;;;;;;;9.57;7.70;;;;;;;;;;5086874;28;20843;-78
2023/04/06 11:13:39;;;;;;;6.40;5.80;;;;;;;;;;5072999;28;20925;-78
2023/04/06 11:16:05;;;;;;;10.07;6.63;;;;;;;;;;5071479;28;20845;-78
2023/04/06 11:18:31;;;;;;;9.90;7.57;;;;;;;;;;5075970;28;20429;-78
2023/04/06 11:20:57;;;;;;;9.25;7.78;;;;;;;;;;5088307;28;20382;-79
2023/04/06 11:23:25;;;;;;;7.18;6.57;;;;;;;;;;5086680;28;20421;-79
2023/04/06 11:25:52;;;;;;;6.35;5.50;;;;;;;;;;5078758;28;20990;-79
2023/04/06 11:28:18;;;;;;;6.18;5.57;;;;;;;;;;5085172;28;20386;-79
2023/04/06 11:30:44;;;;;;;6.07;5.53;;;;;;;;;;5078561;28;20422;-79
2023/04/06 11:33:10;;;;;;;6.10;5.60;;;;;;;;;;5073496;28;20384;-80
2023/04/06 11:35:37;;;;;;;6.20;5.60;;;;;;;;;;5075907;28;20411;-80
2023/04/06 11:38:04;;;;;;;7.55;5.95;;;;;;;;;;5067801;28;20425;-80
2023/04/06 11:40:31;;;;;;;6.63;6.13;;;;;;;;;;5086496;28;20855;-80
2023/04/06 11:42:57;;;;;;;7.18;5.63;;;;;;;;;;5085315;28;20955;-80
2023/04/06 11:45:23;;;;;;;6.32;5.72;;;;;;;;;;5092532;28;20374;-80
2023/04/06 11:48:01;;;;;;;6.22;5.63;;;;;;;;;;5077810;28;20388;-81
2023/04/06 11:50:33;;;;;;;6.13;5.63;;;;;;;;;;5079265;28;20854;-84
2023/04/06 11:53:00;;;;;;;6.65;6.05;;;;;;;;;;5081284;28;20374;-84
2023/04/06 11:55:26;;;;;;;6.23;5.73;;;;;;;;;;5079100;28;20407;-84
2023/04/06 11:57:52;;;;;;;6.43;5.82;;;;;;;;;;5076702;28;20471;-85
2023/04/06 12:00:19;;;;;;;6.72;6.22;;;;;;;;;;5078306;28;20383;-85
2023/04/06 12:02:48;;;;;;;6.90;6.30;;;;;;;;;;5078020;28;20375;-85
2023/04/06 12:05:15;;;;;;;7.72;6.93;;;;;;;;;;5077928;28;20872;-84
2023/04/06 12:07:41;;;;;;;7.05;6.35;;;;;;;;;;5070982;28;20378;-84
2023/04/06 12:10:07;;;;;;;7.10;6.38;;;;;;;;;;5080194;28;20912;-84
2023/04/06 12:12:33;;;;;;;7.10;6.50;;;;;;;;;;5084178;28;20467;-84
2023/04/06 12:14:59;;;;;;;8.30;7.60;;;;;;;;;;5085405;28;20398;-85
2023/04/06 12:17:25;;;;;;;9.05;7.60;;;;;;;;;;5081077;28;20869;-84
2023/04/06 12:19:51;;;;;;;7.78;7.03;;;;;;;;;;5091659;28;20374;-84
2023/04/06 12:22:18;;;;;;;7.55;6.90;;;;;;;;;;5086529;28;20379;-83
2023/04/06 12:24:44;;;;;;;7.45;6.68;;;;;;;;;;5086572;28;20743;-85
2023/04/06 12:27:11;;;;;;;6.93;6.30;;;;;;;;;;5082301;28;20388;-85
2023/04/06 12:29:37;;;;;;;8.02;7.07;;;;;;;;;;5082684;28;20388;-85
2023/04/06 12:32:03;;;;;;;9.80;8.80;;;;;;;;;;5080199;28;20380;-84
2023/04/06 12:34:30;;;;;;;7.90;7.10;;;;;;;;;;5077606;28;20473;-84
2023/04/06 12:36:56;;;;;;;7.68;6.90;;;;;;;;;;5083345;28;20405;-84
2023/04/06 12:39:22;;;;;;;8.18;7.38;;;;;;;;;;5077716;28;20387;-84
2023/04/06 12:41:48;;;;;;;7.20;6.57;;;;;;;;;;5082170;28;20807;-85
2023/04/06 12:44:14;;;;;;;9.25;8.40;;;;;;;;;;5087093;28;20851;-84
2023/04/06 12:46:41;;;;;;;7.80;7.00;;;;;;;;;;5084761;28;20384;-84
2023/04/06 12:49:07;;;;;;;7.30;6.63;;;;;;;;;;5071234;28;20387;-84
2023/04/06 12:51:33;;;;;;;12.45;8.40;;;;;;;;;;5085123;28;20391;-85
2023/04/06 12:53:59;;;;;;;9.82;8.15;;;;;;;;;;5071071;28;20757;-84
2023/04/06 12:56:25;;;;;;;7.70;7.00;;;;;;;;;;5085259;28;20791;-84
2023/04/06 12:58:52;;;;;;;8.25;6.32;;;;;;;;;;5071216;28;20368;-83
2023/04/06 13:01:18;;;;;;;7.30;6.70;;;;;;;;;;5071088;28;20383;-83
2023/04/06 13:03:44;;;;;;;6.28;5.68;;;;;;;;;;5069764;28;20391;-83
2023/04/06 13:06:10;;;;;;;7.18;6.43;;;;;;;;;;5070992;28;20379;-84
2023/04/06 13:08:37;;;;;;;7.45;6.47;;;;;;;;;;5070889;28;20376;-85
2023/04/06 13:11:04;;;;;;;8.02;6.70;;;;;;;;;;5070973;28;20372;-84
2023/04/06 13:13:31;;;;;;;6.95;6.35;;;;;;;;;;5070950;28;20394;-85
2023/04/06 13:16:02;;;;;;;6.82;6.28;;;;;;;;;;5070836;28;20407;-85
2023/04/06 13:18:28;;;;;;;6.07;5.65;;;;;;;;;;5068437;28;20420;-85
2023/04/06 13:20:55;;;;;;;6.63;5.97;;;;;;;;;;5058254;28;20877;-84
2023/04/06 13:23:21;;;;;;;5.70;5.30;;;;;;;;;;5071438;28;20414;-84
2023/04/06 13:25:47;;;;;;;6.10;5.60;;;;;;;;;;5084115;28;20387;-84
2023/04/06 13:28:14;;;;;;;7.07;5.85;;;;;;;;;;5070970;28;20422;-84
2023/04/06 13:30:40;;;;;;;6.27;5.77;;;;;;;;;;5070595;28;20406;-85
2023/04/06 13:33:06;;;;;;;6.53;5.90;;;;;;;;;;5070750;28;20865;-85
2023/04/06 13:35:32;;;;;;;6.43;5.82;;;;;;;;;;5069008;28;20966;-84
2023/04/06 13:37:58;;;;;;;6.30;5.45;;;;;;;;;;5070774;28;20728;-85
2023/04/06 13:40:24;;;;;;;6.53;5.57;;;;;;;;;;5084758;28;20374;-84
2023/04/06 13:42:51;;;;;;;6.20;5.70;;;;;;;;;;5073805;28;20367;-85
2023/04/06 13:45:17;;;;;;;5.35;4.85;;;;;;;;;;5081493;28;20484;-85
2023/04/06 13:47:43;;;;;;;5.57;5.07;;;;;;;;;;5070546;28;20400;-85
2023/04/06 13:50:09;;;;;;;5.10;4.60;;;;;;;;;;5070423;28;20768;-85
2023/04/06 13:52:36;;;;;;;5.65;5.07;;;;;;;;;;5070533;28;20411;-85
2023/04/06 13:55:02;;;;;;;5.28;4.78;;;;;;;;;;5073775;28;20419;-86
2023/04/06 13:57:29;;;;;;;4.93;4.30;;;;;;;;;;5070817;28;20745;-85
2023/04/06 13:59:55;;;;;;;5.15;4.65;;;;;;;;;;5073849;28;20376;-84
2023/04/06 14:02:26;;;;;;;5.00;4.30;;;;;;;;;;5073740;28;20376;-85
2023/04/06 14:04:53;;;;;;;4.47;4.07;;;;;;;;;;5073870;28;20386;-84
2023/04/06 14:07:19;;;;;;;4.40;4.00;;;;;;;;;;5073977;28;20732;-84
2023/04/06 14:09:45;;;;;;;4.93;4.30;;;;;;;;;;5073960;28;20376;-84
2023/04/06 14:12:11;;;;;;;5.28;4.38;;;;;;;;;;5070507;28;20391;-85
2023/04/06 14:14:37;;;;;;;5.57;4.00;;;;;;;;;;5072787;28;20439;-80
2023/04/06 14:17:03;;;;;;;3.85;3.55;;;;;;;;;;5072523;28;20407;-81
2023/04/06 14:19:29;;;;;;;3.30;3.10;;;;;;;;;;5081180;28;20754;-80
2023/04/06 14:21:56;;;;;;;3.95;3.55;;;;;;;;;;5077316;28;20928;-80
2023/04/06 14:24:22;;;;;;;5.93;3.40;;;;;;;;;;5089469;28;20382;-81
2023/04/06 14:26:48;;;;;;;3.80;3.50;;;;;;;;;;5085000;28;20410;-80
2023/04/06 14:29:15;;;;;;;4.28;3.63;;;;;;;;;;5086802;28;20443;-80
2023/04/06 14:31:41;;;;;;;4.07;3.58;;;;;;;;;;5082623;28;20869;-80
2023/04/06 14:34:07;;;;;;;3.50;3.20;;;;;;;;;;5077093;28;20443;-81